Airfield :
LOGIN :

Register | Disclaimer

   EN    FR    IT 

 










Legend :    VFR   Marginal VFR   IFR   Intensive IFR   Very Intensive IFR
Visi :
Ceiling :
>= 8 km
>= 3000ft
5 to 8 km
1000 to 3000 ft
1500m to 5 km
500 to 1000 ft
800 to 1500m
200 to 500 ft
< 800m
< 200 ft
Symbols :   Thunderstorms  Fog  Heavy snow  Heavy precipitations  Wind > 20 kt
SIGMETs :     Misc.  Thunderstorms  Icing  Turbulence  Mountain Waves  Volcanic Ashes






- Airport Elevation : 283 ft
- IATA code : KKN


ENKR - Kirkenes , Høybuktmoen

CURRENT METAR :
  • 020050Z AUTO 16005KT 9999 NCD 10/05 Q1020 RMK WIND 731FT 23006KT

EXPIRED METARs :
  • 020020Z AUTO 15003KT 9999 NCD 09/05 Q1021 RMK WIND 731FT 22008KT
  • 012350Z AUTO 16003KT 9999 NCD 10/05 Q1021 RMK WIND 731FT 21009KT
  • 012320Z AUTO VRB02KT 9999 NCD 09/05 Q1021 RMK WIND 731FT 21010KT
  • 012250Z AUTO 17005KT 9999 NCD 10/05 Q1021 RMK WIND 731FT 20009KT
  • 012220Z 16006KT CAVOK 10/06 Q1021 RMK WIND 731FT 20010KT
  • 012150Z 16006KT CAVOK 11/06 Q1021 RMK WIND 731FT 19009KT

TAF TAF ENKR
Valid from the 02 at 00:00 until the 02 at 09:00 UTC


012300Z 0200/0209 18005KT CAVOK



MET'MAP, your aeronautical weather chart ! - Copyright ORBIFLY December 2007 - Disclaimer

ORBIFLY MET'MAP TEAM :

Programming & Development : Alexandra Zaïnal
Concept & original design : Baudouin d'Aumeries
Assistance for programming : Marc-Olivier Méhu
Technical & hardware support : Manuel Goepfert

Contact : metmap@orbifly.com




SOURCES & CREDITS :

   NOAA